createdAt,value
2022-11-27T00:00:32.058Z,5.75
2022-11-27T00:03:04.902Z,5.95
2022-11-27T00:05:36.893Z,5.30
2022-11-27T00:08:09.386Z,5.38
2022-11-27T00:10:41.277Z,5.50
2022-11-27T00:13:13.584Z,5.40
2022-11-27T00:15:46.056Z,5.47
2022-11-27T00:18:18.624Z,5.32
2022-11-27T00:20:50.488Z,5.13
2022-11-27T00:23:23.053Z,4.87
2022-11-27T00:25:55.322Z,4.97
2022-11-27T00:28:28.329Z,4.72
2022-11-27T00:31:02.686Z,4.72
2022-11-27T00:33:35.443Z,5.38
2022-11-27T00:36:08.634Z,5.03
2022-11-27T00:38:41.360Z,5.68
2022-11-27T00:41:18.512Z,5.00
2022-11-27T00:43:51.858Z,5.35
2022-11-27T00:46:30.052Z,4.47
2022-11-27T00:49:05.944Z,4.40
2022-11-27T00:51:37.867Z,4.53
2022-11-27T00:54:10.546Z,6.50
2022-11-27T00:56:42.856Z,5.70
2022-11-27T00:59:15.432Z,6.85
2022-11-27T01:01:47.616Z,6.77
2022-11-27T01:04:20.218Z,7.75
2022-11-27T01:06:52.092Z,6.68
2022-11-27T01:09:24.985Z,6.53
2022-11-27T01:11:56.925Z,7.75
2022-11-27T01:14:29.718Z,8.33
2022-11-27T01:17:02.142Z,9.70
2022-11-27T01:19:35.208Z,9.02
2022-11-27T01:22:07.091Z,9.40
2022-11-27T01:24:39.560Z,9.93
2022-11-27T01:27:11.654Z,11.80
2022-11-27T01:29:45.413Z,9.20
2022-11-27T01:32:17.401Z,6.55
2022-11-27T01:34:50.371Z,6.20
2022-11-27T01:37:22.261Z,6.28
2022-11-27T01:39:55.252Z,5.50
2022-11-27T01:42:27.133Z,5.22
2022-11-27T01:44:59.798Z,4.80
2022-11-27T01:47:48.308Z,5.55
2022-11-27T01:50:33.229Z,7.00
2022-11-27T01:53:19.196Z,7.07
2022-11-27T01:55:59.673Z,6.63
2022-11-27T01:58:32.613Z,6.03
2022-11-27T02:01:06.152Z,6.95
2022-11-27T02:03:40.246Z,6.35
2022-11-27T02:06:14.062Z,7.00
2022-11-27T02:08:46.414Z,6.95
2022-11-27T02:11:30.528Z,7.53
2022-11-27T02:14:34.522Z,7.10
2022-11-27T02:17:31.957Z,7.05
2022-11-27T02:20:37.962Z,7.03
2022-11-27T02:23:22.898Z,7.40
2022-11-27T02:26:34.595Z,8.13
2022-11-27T02:29:11.944Z,8.95
2022-11-27T02:32:08.520Z,8.07
2022-11-27T02:34:49.944Z,9.10
2022-11-27T02:37:48.397Z,9.07
2022-11-27T02:40:29.749Z,8.45
2022-11-27T02:43:30.944Z,9.40
2022-11-27T02:46:06.448Z,7.82
2022-11-27T02:48:45.027Z,8.40
2022-11-27T02:51:24.169Z,8.63
2022-11-27T02:54:01.580Z,8.18
2022-11-27T02:56:35.587Z,7.72
2022-11-27T02:59:12.831Z,8.13
2022-11-27T03:02:00.459Z,7.20
2022-11-27T03:04:42.920Z,7.43
2022-11-27T03:07:25.936Z,7.13
2022-11-27T03:10:03.871Z,7.22
2022-11-27T03:12:36.865Z,8.07
2022-11-27T03:15:09.597Z,7.13
2022-11-27T03:17:58.005Z,6.03
2022-11-27T03:20:57.959Z,6.13
2022-11-27T03:23:30.745Z,5.82
2022-11-27T03:26:03.132Z,5.68
2022-11-27T03:28:37.056Z,4.90
2022-11-27T03:31:09.035Z,5.65
2022-11-27T03:33:41.992Z,5.28
2022-11-27T03:36:17.855Z,5.43
2022-11-27T03:38:52.156Z,5.45
2022-11-27T03:41:51.042Z,5.83
2022-11-27T03:44:57.488Z,5.78
2022-11-27T03:48:03.724Z,5.78
2022-11-27T03:51:13.779Z,4.00
2022-11-27T03:54:07.238Z,4.38
2022-11-27T03:56:55.863Z,3.90
2022-11-27T03:59:34.032Z,4.55
2022-11-27T04:02:06.130Z,4.60
2022-11-27T04:04:39.141Z,4.63
2022-11-27T04:07:17.939Z,4.63
2022-11-27T04:09:49.867Z,4.80
2022-11-27T04:12:23.006Z,4.63
2022-11-27T04:14:54.966Z,5.45
2022-11-27T04:17:27.793Z,4.78
2022-11-27T04:19:59.730Z,4.68
2022-11-27T04:22:32.440Z,4.57
2022-11-27T04:25:05.807Z,4.57
2022-11-27T04:27:38.170Z,5.25
2022-11-27T04:30:12.724Z,4.68
2022-11-27T04:32:45.279Z,4.03
2022-11-27T04:35:17.186Z,4.23
2022-11-27T04:37:50.026Z,3.88
2022-11-27T04:40:21.900Z,3.65
2022-11-27T04:42:54.342Z,4.72
2022-11-27T04:45:26.382Z,4.53
2022-11-27T04:47:59.146Z,4.00
2022-11-27T04:50:31.370Z,4.80
2022-11-27T04:53:04.322Z,4.78
2022-11-27T04:55:36.321Z,4.30
2022-11-27T04:58:09.119Z,4.25
2022-11-27T05:00:41.485Z,3.97
2022-11-27T05:03:14.116Z,4.38
2022-11-27T05:05:46.071Z,4.35
2022-11-27T05:08:18.771Z,4.60
2022-11-27T05:11:05.318Z,4.35
2022-11-27T05:13:37.602Z,4.33
2022-11-27T05:16:11.289Z,4.70
2022-11-27T05:18:43.484Z,4.70
2022-11-27T05:21:16.206Z,4.40
2022-11-27T05:23:49.148Z,4.65
2022-11-27T05:26:21.054Z,4.67
2022-11-27T05:28:54.320Z,4.50
2022-11-27T05:31:26.647Z,4.20
2022-11-27T05:33:59.568Z,4.72
2022-11-27T05:36:32.782Z,4.40
2022-11-27T05:39:07.357Z,4.30
2022-11-27T05:41:43.372Z,3.80
2022-11-27T05:44:15.732Z,4.07
2022-11-27T05:46:48.423Z,4.28
2022-11-27T05:49:20.353Z,4.03
2022-11-27T05:51:53.476Z,4.30
2022-11-27T05:54:25.427Z,3.78
2022-11-27T05:56:58.180Z,3.40
2022-11-27T05:59:30.299Z,3.90
2022-11-27T06:02:03.511Z,3.38
2022-11-27T06:04:35.569Z,3.23
2022-11-27T06:07:08.268Z,3.70
2022-11-27T06:09:40.688Z,3.55
2022-11-27T06:12:12.638Z,3.63
2022-11-27T06:14:45.320Z,3.65
2022-11-27T06:17:17.689Z,3.80
2022-11-27T06:19:49.592Z,4.10
2022-11-27T06:22:22.819Z,3.80
2022-11-27T06:24:55.349Z,4.22
2022-11-27T06:27:34.492Z,4.63
2022-11-27T06:30:07.862Z,3.60
2022-11-27T06:32:40.130Z,3.88
2022-11-27T06:35:13.209Z,3.65
2022-11-27T06:37:45.102Z,3.95
2022-11-27T06:40:17.888Z,3.70
2022-11-27T06:42:49.808Z,3.40
2022-11-27T06:45:22.624Z,3.95
2022-11-27T06:47:54.964Z,3.35
2022-11-27T06:50:27.123Z,4.30
2022-11-27T06:53:01.954Z,3.33
2022-11-27T06:55:33.870Z,4.20
2022-11-27T06:58:07.164Z,3.85
2022-11-27T07:00:39.264Z,3.40
2022-11-27T07:03:20.799Z,4.38
2022-11-27T07:05:53.131Z,3.50
2022-11-27T07:08:25.431Z,3.70
2022-11-27T07:11:06.516Z,3.88
2022-11-27T07:13:42.233Z,3.60
2022-11-27T07:16:18.807Z,3.80
2022-11-27T07:18:56.205Z,4.18
2022-11-27T07:21:29.553Z,4.07
2022-11-27T07:24:02.282Z,4.47
2022-11-27T07:26:34.187Z,5.18
2022-11-27T07:29:09.348Z,5.28
2022-11-27T07:31:41.947Z,6.93
2022-11-27T07:34:19.911Z,7.30
2022-11-27T07:36:54.998Z,6.97
2022-11-27T07:39:54.005Z,6.40
2022-11-27T07:45:12.578Z,4.50
2022-11-27T07:47:45.373Z,5.00
2022-11-27T07:50:17.662Z,5.22
2022-11-27T07:52:49.964Z,5.57
2022-11-27T07:55:21.890Z,6.25
2022-11-27T07:57:54.626Z,6.97
2022-11-27T08:00:26.561Z,7.00
2022-11-27T08:03:00.440Z,6.57
2022-11-27T08:05:35.598Z,5.35
2022-11-27T08:08:07.960Z,5.25
2022-11-27T08:10:40.812Z,5.07
2022-11-27T08:13:13.075Z,4.70
2022-11-27T08:15:46.554Z,4.22
2022-11-27T08:18:18.599Z,4.95
2022-11-27T08:20:51.475Z,4.35
2022-11-27T08:23:23.375Z,4.90
2022-11-27T08:25:56.586Z,4.43
2022-11-27T08:28:28.549Z,4.53
2022-11-27T08:31:03.724Z,4.93
2022-11-27T08:33:36.431Z,4.78
2022-11-27T08:36:13.664Z,4.85
2022-11-27T08:38:49.943Z,6.10
2022-11-27T08:41:28.393Z,6.13
2022-11-27T08:44:09.027Z,4.80
2022-11-27T08:46:45.820Z,5.97
2022-11-27T08:49:41.498Z,6.63
2022-11-27T08:52:36.511Z,5.60
2022-11-27T09:01:57.493Z,4.65
2022-11-27T09:04:32.623Z,4.45
2022-11-27T09:07:07.486Z,4.60
2022-11-27T09:09:39.704Z,4.75
2022-11-27T09:12:13.157Z,4.63
2022-11-27T09:14:45.067Z,4.72
2022-11-27T09:17:17.259Z,4.22
2022-11-27T09:19:49.993Z,3.60
2022-11-27T09:22:22.504Z,4.03
2022-11-27T09:24:54.423Z,4.25
2022-11-27T09:27:27.796Z,4.65
2022-11-27T09:30:00.536Z,5.25
2022-11-27T09:32:34.074Z,5.97
2022-11-27T09:35:06.404Z,6.20
2022-11-27T09:37:39.427Z,5.75
2022-11-27T09:40:17.467Z,6.38
2022-11-27T09:42:58.621Z,5.32
2022-11-27T09:45:31.304Z,5.90
2022-11-27T09:48:10.261Z,6.50
2022-11-27T09:50:50.347Z,5.85
2022-11-27T09:53:49.394Z,5.40
2022-11-27T09:56:21.967Z,6.38
2022-11-27T09:59:23.336Z,5.57
2022-11-27T10:01:55.723Z,6.15
2022-11-27T10:04:39.844Z,6.13
2022-11-27T10:08:20.953Z,5.25
2022-11-27T10:11:12.719Z,6.68
2022-11-27T10:14:39.991Z,6.30
2022-11-27T10:17:21.602Z,5.28
2022-11-27T10:20:39.718Z,5.60
2022-11-27T10:23:27.217Z,5.45
2022-11-27T10:26:39.066Z,5.50
2022-11-27T10:29:43.320Z,5.27
2022-11-27T10:32:53.618Z,5.90
2022-11-27T10:35:20.082Z,5.60
2022-11-27T10:38:22.522Z,6.20
2022-11-27T10:41:47.724Z,6.22
2022-11-27T10:44:53.310Z,6.10
2022-11-27T10:47:32.260Z,5.68
2022-11-27T10:50:15.814Z,5.50
2022-11-27T10:53:00.532Z,5.65
2022-11-27T10:56:10.845Z,5.55
2022-11-27T10:59:13.660Z,5.53
2022-11-27T11:01:53.389Z,5.03
2022-11-27T11:04:39.294Z,5.63
2022-11-27T11:07:28.325Z,5.40
2022-11-27T11:10:01.371Z,5.30
2022-11-27T11:12:33.798Z,5.60
2022-11-27T11:15:12.261Z,5.75
2022-11-27T11:17:44.256Z,5.93
2022-11-27T11:20:25.058Z,6.03
2022-11-27T11:22:58.700Z,5.82
2022-11-27T11:25:31.032Z,6.17
2022-11-27T11:28:06.886Z,5.80
2022-11-27T11:30:40.014Z,5.80
2022-11-27T11:33:13.805Z,5.65
2022-11-27T11:38:50.473Z,5.85
2022-11-27T11:41:24.650Z,6.63
2022-11-27T11:44:01.925Z,5.07
2022-11-27T11:46:37.131Z,5.15
2022-11-27T11:49:24.206Z,5.60
2022-11-27T11:52:22.476Z,5.35
2022-11-27T11:55:15.038Z,5.90
2022-11-27T11:58:21.826Z,5.93
2022-11-27T12:01:29.546Z,5.72
2022-11-27T12:04:57.950Z,5.93
2022-11-27T12:08:05.636Z,6.10
2022-11-27T12:10:55.237Z,6.32
2022-11-27T12:13:39.189Z,5.80
2022-11-27T12:16:48.518Z,6.13
2022-11-27T12:19:48.083Z,6.13
2022-11-27T12:23:16.486Z,5.80
2022-11-27T12:26:07.675Z,6.38
2022-11-27T12:29:17.242Z,5.72
2022-11-27T12:32:10.422Z,5.82
2022-11-27T12:35:23.426Z,6.10
2022-11-27T12:38:33.889Z,6.25
2022-11-27T12:41:45.876Z,6.53
2022-11-27T12:44:35.533Z,6.75
2022-11-27T12:47:19.576Z,6.60
2022-11-27T12:50:01.169Z,5.80
2022-11-27T12:52:41.163Z,7.20
2022-11-27T12:55:23.082Z,6.88
2022-11-27T12:58:45.925Z,6.47
2022-11-27T13:01:47.563Z,7.13
2022-11-27T13:04:27.985Z,6.10
2022-11-27T13:07:13.728Z,6.37
2022-11-27T13:10:21.626Z,6.47
2022-11-27T13:13:10.136Z,6.03
2022-11-27T13:16:07.725Z,6.50
2022-11-27T13:18:47.565Z,6.80
2022-11-27T13:21:30.817Z,7.00
2022-11-27T13:24:04.623Z,6.50
2022-11-27T13:26:51.434Z,6.63
2022-11-27T13:29:54.244Z,7.10
2022-11-27T13:32:36.588Z,7.03
2022-11-27T13:35:38.897Z,10.20
2022-11-27T13:38:24.692Z,7.35
2022-11-27T13:40:58.888Z,7.07
2022-11-27T13:43:44.407Z,6.68
2022-11-27T13:46:27.381Z,6.93
2022-11-27T13:49:05.266Z,6.87
2022-11-27T13:51:39.879Z,6.97
2022-11-27T13:54:23.278Z,7.63
2022-11-27T13:57:13.534Z,7.18
2022-11-27T13:59:57.838Z,7.50
2022-11-27T14:02:52.114Z,7.43
2022-11-27T14:05:43.371Z,7.15
2022-11-27T14:08:30.046Z,6.72
2022-11-27T14:11:14.683Z,7.40
2022-11-27T14:13:52.119Z,7.57
2022-11-27T14:16:36.363Z,7.15
2022-11-27T14:19:59.293Z,7.15
2022-11-27T14:23:07.270Z,7.40
2022-11-27T14:25:39.609Z,7.18
2022-11-27T14:28:21.862Z,6.78
2022-11-27T14:31:01.051Z,7.80
2022-11-27T14:33:59.540Z,6.82
2022-11-27T14:36:32.731Z,6.70
2022-11-27T14:39:05.196Z,8.43
2022-11-27T14:41:38.057Z,8.02
2022-11-27T14:44:15.395Z,7.13
2022-11-27T14:46:48.944Z,7.45
2022-11-27T14:49:25.250Z,7.75
2022-11-27T14:52:07.007Z,8.60
2022-11-27T14:54:40.857Z,7.28
2022-11-27T14:57:24.700Z,7.87
2022-11-27T15:00:18.354Z,7.97
2022-11-27T15:02:52.217Z,9.07
2022-11-27T15:05:27.922Z,9.05
2022-11-27T15:08:02.418Z,8.40
2022-11-27T15:10:40.895Z,9.83
2022-11-27T15:13:29.833Z,8.23
2022-11-27T15:16:07.852Z,8.77
2022-11-27T15:18:41.102Z,9.05
2022-11-27T15:21:19.550Z,8.75
2022-11-27T15:23:55.267Z,8.67
2022-11-27T15:26:40.392Z,8.98
2022-11-27T15:29:37.191Z,8.95
2022-11-27T15:32:25.480Z,9.38
2022-11-27T15:34:58.427Z,9.73
2022-11-27T15:37:36.542Z,8.33
2022-11-27T15:40:32.247Z,8.90
2022-11-27T15:43:17.434Z,8.45
2022-11-27T15:45:51.104Z,11.73
2022-11-27T15:48:24.377Z,11.73
2022-11-27T15:50:56.294Z,9.37
2022-11-27T15:53:29.444Z,9.52
2022-11-27T15:56:01.314Z,9.65
2022-11-27T15:58:34.513Z,9.35
2022-11-27T16:01:07.541Z,8.85
2022-11-27T16:03:40.983Z,7.43
2022-11-27T16:06:13.751Z,8.35
2022-11-27T16:08:45.666Z,7.63
2022-11-27T16:11:20.063Z,8.50
2022-11-27T16:13:53.051Z,9.48
2022-11-27T16:16:26.756Z,11.30
2022-11-27T16:19:05.872Z,11.45
2022-11-27T16:21:39.002Z,11.60
2022-11-27T16:24:14.534Z,11.82
2022-11-27T16:26:46.438Z,11.38
2022-11-27T16:29:19.199Z,10.30
2022-11-27T16:31:52.730Z,11.70
2022-11-27T16:34:24.705Z,10.38
2022-11-27T16:36:58.093Z,9.82
2022-11-27T16:39:31.307Z,8.02
2022-11-27T16:42:03.843Z,8.57
2022-11-27T16:44:36.448Z,14.27
2022-11-27T16:47:10.694Z,8.30
2022-11-27T16:49:43.396Z,7.20
2022-11-27T16:52:17.466Z,6.93
2022-11-27T16:54:49.556Z,7.20
2022-11-27T16:57:22.635Z,6.88
2022-11-27T16:59:55.448Z,7.30
2022-11-27T17:02:29.245Z,6.88
2022-11-27T17:05:01.186Z,6.90
2022-11-27T17:07:34.287Z,6.95
2022-11-27T17:10:07.280Z,7.80
2022-11-27T17:12:40.057Z,7.03
2022-11-27T17:15:13.030Z,6.57
2022-11-27T17:17:45.789Z,6.63
2022-11-27T17:20:18.141Z,7.23
2022-11-27T17:22:51.517Z,7.38
2022-11-27T17:25:25.642Z,7.03
2022-11-27T17:27:58.614Z,6.95
2022-11-27T17:30:36.394Z,7.90
2022-11-27T17:33:11.635Z,7.57
2022-11-27T17:35:44.480Z,7.22
2022-11-27T17:38:17.022Z,7.80
2022-11-27T17:40:50.149Z,7.43
2022-11-27T17:43:22.585Z,7.32
2022-11-27T17:45:54.880Z,7.07
2022-11-27T17:48:28.037Z,8.10
2022-11-27T17:51:00.866Z,7.53
2022-11-27T17:53:33.781Z,8.05
2022-11-27T17:56:09.758Z,7.80
2022-11-27T17:58:43.232Z,8.97
2022-11-27T18:01:23.010Z,8.48
2022-11-27T18:04:01.117Z,8.32
2022-11-27T18:06:36.053Z,8.57
2022-11-27T18:09:09.080Z,8.10
2022-11-27T18:11:41.703Z,16.43
2022-11-27T18:14:15.486Z,21.08
2022-11-27T18:16:47.561Z,71.25
2022-11-27T18:19:20.897Z,12.10
2022-11-27T18:21:53.638Z,9.13
2022-11-27T18:24:27.212Z,13.17
2022-11-27T18:27:09.331Z,15.85
2022-11-27T18:29:45.343Z,15.20
2022-11-27T18:32:18.705Z,15.90
2022-11-27T18:34:54.838Z,16.70
2022-11-27T18:37:27.020Z,17.13
2022-11-27T18:39:59.900Z,17.25
2022-11-27T18:42:34.866Z,16.20
2022-11-27T18:45:20.186Z,16.88
2022-11-27T18:48:00.493Z,15.70
2022-11-27T18:50:32.581Z,15.10
2022-11-27T18:53:05.253Z,14.43
2022-11-27T18:55:37.567Z,14.10
2022-11-27T18:58:12.980Z,14.07
2022-11-27T19:00:45.871Z,14.88
2022-11-27T19:03:19.533Z,14.07
2022-11-27T19:05:51.760Z,13.68
2022-11-27T19:08:24.800Z,15.52
2022-11-27T19:11:11.944Z,14.07
2022-11-27T19:13:46.014Z,14.15
2022-11-27T19:16:31.870Z,15.32
2022-11-27T19:19:05.355Z,14.90
2022-11-27T19:21:39.667Z,17.23
2022-11-27T19:24:12.001Z,17.33
2022-11-27T19:26:44.632Z,17.60
2022-11-27T19:29:17.662Z,16.63
2022-11-27T19:31:50.525Z,15.70
2022-11-27T19:34:22.899Z,16.30
2022-11-27T19:36:58.591Z,15.95
2022-11-27T19:39:31.138Z,14.98
2022-11-27T19:42:04.235Z,12.77
2022-11-27T19:44:37.334Z,13.95
2022-11-27T19:47:10.031Z,13.93
2022-11-27T19:49:42.514Z,14.88
2022-11-27T19:52:15.143Z,14.25
2022-11-27T19:54:47.348Z,13.80
2022-11-27T19:57:20.191Z,12.82
2022-11-27T19:59:52.515Z,16.60
2022-11-27T20:02:25.105Z,13.60
2022-11-27T20:04:57.951Z,14.57
2022-11-27T20:07:30.853Z,14.03
2022-11-27T20:10:02.973Z,12.93
2022-11-27T20:12:37.431Z,14.38
2022-11-27T20:15:14.449Z,12.02
2022-11-27T20:17:47.478Z,11.30
2022-11-27T20:20:21.451Z,11.23
2022-11-27T20:22:54.257Z,11.65
2022-11-27T20:25:26.217Z,11.35
2022-11-27T20:27:59.071Z,12.18
2022-11-27T20:30:33.043Z,12.95
2022-11-27T20:33:07.851Z,15.20
2022-11-27T20:35:43.469Z,14.73
2022-11-27T20:38:16.394Z,14.25
2022-11-27T20:40:48.835Z,13.68
2022-11-27T20:43:21.573Z,12.95
2022-11-27T20:45:53.571Z,12.57
2022-11-27T20:48:26.148Z,16.25
2022-11-27T20:51:07.072Z,14.90
2022-11-27T20:53:40.851Z,13.02
2022-11-27T20:56:15.965Z,10.48
2022-11-27T20:58:49.100Z,11.17
2022-11-27T21:01:24.643Z,11.50
2022-11-27T21:04:01.040Z,10.30
2022-11-27T21:06:33.761Z,10.48
2022-11-27T21:09:08.151Z,10.75
2022-11-27T21:11:40.502Z,11.07
2022-11-27T21:14:16.283Z,9.73
2022-11-27T21:16:50.748Z,10.98
2022-11-27T21:19:26.752Z,10.75
2022-11-27T21:22:00.963Z,10.63
2022-11-27T21:24:33.692Z,33.87
2022-11-27T21:27:07.194Z,11.27
2022-11-27T21:29:40.076Z,10.45
2022-11-27T21:32:12.911Z,8.80
2022-11-27T21:34:45.582Z,8.43
2022-11-27T21:37:17.965Z,8.93
2022-11-27T21:39:51.875Z,8.23
2022-11-27T21:42:24.838Z,8.63
2022-11-27T21:44:57.969Z,9.15
2022-11-27T21:47:29.919Z,9.10
2022-11-27T21:50:02.774Z,8.57
2022-11-27T21:52:35.752Z,7.63
2022-11-27T21:55:11.970Z,9.10
2022-11-27T21:57:45.140Z,8.75
2022-11-27T22:00:18.673Z,8.93
2022-11-27T22:02:50.627Z,9.67
2022-11-27T22:05:23.243Z,9.07
2022-11-27T22:07:55.318Z,9.05
2022-11-27T22:10:27.702Z,8.77
2022-11-27T22:12:59.679Z,9.15
2022-11-27T22:15:32.379Z,8.93
2022-11-27T22:18:04.483Z,8.68
2022-11-27T22:20:37.137Z,8.90
2022-11-27T22:23:09.272Z,9.23
2022-11-27T22:25:41.913Z,9.80
2022-11-27T22:28:13.927Z,9.67
2022-11-27T22:30:46.512Z,9.07
2022-11-27T22:33:18.735Z,9.60
2022-11-27T22:35:51.650Z,8.60
2022-11-27T22:38:23.650Z,8.70
2022-11-27T22:40:59.151Z,9.30
2022-11-27T22:43:33.083Z,8.77
2022-11-27T22:46:15.390Z,8.88
2022-11-27T22:48:47.739Z,9.50
2022-11-27T22:51:22.533Z,8.52
2022-11-27T22:53:54.742Z,9.13
2022-11-27T22:56:28.348Z,10.07
2022-11-27T22:59:30.543Z,10.38
2022-11-27T23:01:54.534Z,9.38
2022-11-27T23:04:26.480Z,9.05
2022-11-27T23:06:59.862Z,9.00
2022-11-27T23:09:33.087Z,9.75
2022-11-27T23:12:05.904Z,8.40
2022-11-27T23:14:38.022Z,8.48
2022-11-27T23:17:10.556Z,8.82
2022-11-27T23:19:43.026Z,9.53
2022-11-27T23:22:15.945Z,8.52
2022-11-27T23:24:47.831Z,7.32
2022-11-27T23:27:20.361Z,7.40
2022-11-27T23:29:52.259Z,8.38
2022-11-27T23:32:24.827Z,8.30
2022-11-27T23:34:56.808Z,8.70
2022-11-27T23:37:29.668Z,8.98
2022-11-27T23:40:01.969Z,8.82
2022-11-27T23:42:35.672Z,9.90
2022-11-27T23:45:08.941Z,9.43
2022-11-27T23:47:41.688Z,9.52
2022-11-27T23:50:13.565Z,9.65
2022-11-27T23:52:46.119Z,9.40
2022-11-27T23:55:18.043Z,8.88
2022-11-27T23:57:50.500Z,8.60
